Time;durP1;ratioP1;P1;durP2;ratioP2;P2;SDS_P1;SDS_P2;PMS_P1;PMS_P2;Temp;Humidity;BMP_temperature;BMP_pressure;BME280_temperature;BME280_humidity;BME280_pressure;Samples;Min_cycle;Max_cycle;Signal;HPM_P1;HPM_P2
2022/07/21 00:00:41;;;;;;;1.90;1.80;;;23.40;99.90;;;23.77;71.86;101610.50;5052077;28;20075;-66
2022/07/21 00:03:09;;;;;;;2.63;2.53;;;23.40;99.90;;;23.83;71.65;101604.81;5050697;28;20041;-66
2022/07/21 00:05:39;;;;;;;2.30;2.20;;;23.40;99.90;;;23.86;71.94;101603.81;5051624;28;20391;-66
2022/07/21 00:08:08;;;;;;;2.00;1.90;;;23.50;99.90;;;23.80;71.95;101594.16;5051940;28;20056;-66
2022/07/21 00:10:36;;;;;;;2.30;2.20;;;23.40;99.90;;;23.88;71.72;101589.28;5051536;28;20463;-66
2022/07/21 00:13:05;;;;;;;2.47;2.38;;;23.50;99.90;;;23.90;71.83;101594.59;5052211;28;20120;-66
2022/07/21 00:15:33;;;;;;;2.72;2.63;;;23.40;99.90;;;23.85;71.70;101583.13;5051240;28;20075;-66
2022/07/21 00:18:02;;;;;;;2.10;2.00;;;23.50;99.90;;;23.96;71.63;101594.31;5051129;28;20069;-66
2022/07/21 00:20:31;;;;;;;2.38;2.28;;;23.50;99.90;;;23.64;71.62;101541.78;5051833;28;20037;-66
2022/07/21 00:23:01;;;;;;;2.35;2.25;;;23.50;99.90;;;23.85;71.96;101596.63;5051665;28;20045;-66
2022/07/21 00:25:29;;;;;;;2.28;2.17;;;23.50;99.90;;;23.77;72.35;101601.53;5052386;28;20048;-66
2022/07/21 00:28:03;;;;;;;2.10;2.00;;;23.40;99.90;;;23.68;72.57;101599.25;5052768;28;20045;-66
2022/07/21 00:30:32;;;;;;;3.15;3.03;;;23.30;99.90;;;23.60;73.11;101596.91;5052480;28;20140;-66
2022/07/21 00:33:00;;;;;;;2.00;1.90;;;23.30;99.90;;;23.55;73.38;101598.09;5052341;28;20037;-67
2022/07/21 00:35:29;;;;;;;2.20;2.10;;;23.10;99.90;;;23.53;73.46;101584.66;5052633;28;20033;-67
2022/07/21 00:37:57;;;;;;;2.70;2.60;;;23.10;99.90;;;23.47;73.69;101593.03;5052271;28;20033;-66
2022/07/21 00:40:27;;;;;;;2.20;2.10;;;23.10;99.90;;;23.46;73.87;101599.38;5052657;28;20473;-66
2022/07/21 00:42:56;;;;;;;2.03;1.92;;;23.10;99.90;;;23.32;74.18;101558.63;5052612;28;20045;-66
2022/07/21 00:45:25;;;;;;;3.65;3.45;;;23.00;99.90;;;23.48;74.09;101592.06;5052087;28;20127;-66
2022/07/21 00:47:53;;;;;;;2.10;2.00;;;23.00;99.90;;;23.30;74.22;101555.97;5052546;28;20067;-67
2022/07/21 00:50:22;;;;;;;5.10;4.72;;;23.10;99.90;;;23.65;73.69;101583.19;5053037;28;20045;-66
2022/07/21 00:52:51;;;;;;;2.20;2.10;;;23.20;99.90;;;23.67;73.27;101573.19;5055954;28;20071;-66
2022/07/21 00:55:24;;;;;;;2.13;2.03;;;23.30;99.90;;;23.56;73.25;101546.66;5055444;28;20033;-66
2022/07/21 00:57:55;;;;;;;2.17;2.08;;;23.30;99.90;;;23.71;73.42;101578.38;5055780;28;20045;-67
2022/07/21 01:00:27;;;;;;;2.55;2.45;;;23.30;99.90;;;23.71;73.23;101575.66;5055721;28;20091;-66
2022/07/21 01:02:57;;;;;;;2.30;2.20;;;23.30;99.90;;;23.70;73.30;101587.44;5055630;28;20045;-66
2022/07/21 01:05:26;;;;;;;2.28;2.17;;;23.30;99.90;;;23.63;73.63;101591.38;5055882;28;20440;-66
2022/07/21 01:08:02;;;;;;;2.20;2.10;;;23.30;99.90;;;23.60;74.28;101586.09;5055796;28;20045;-66
2022/07/21 01:10:32;;;;;;;2.20;2.10;;;23.20;99.90;;;23.25;74.45;101544.50;5055780;28;20067;-67
2022/07/21 01:13:02;;;;;;;2.30;2.20;;;23.20;99.90;;;23.40;74.89;101575.38;5055699;28;20064;-67
2022/07/21 01:15:31;;;;;;;2.15;2.05;;;23.10;99.90;;;23.29;75.10;101558.72;5055418;28;20771;-67
2022/07/21 01:18:01;;;;;;;2.13;2.03;;;23.00;99.90;;;23.47;74.83;101581.34;5055543;28;20091;-67
2022/07/21 01:20:35;;;;;;;2.20;2.10;;;23.10;99.90;;;23.49;74.61;101577.63;5055352;28;20048;-66
2022/07/21 01:23:05;;;;;;;1.75;1.75;;;23.10;99.90;;;23.41;74.67;101579.81;5055644;28;20052;-67
2022/07/21 01:25:34;;;;;;;2.10;2.00;;;23.10;99.90;;;23.36;74.86;101572.88;5055226;28;20041;-66
2022/07/21 01:28:02;;;;;;;2.40;2.30;;;23.00;99.90;;;23.36;75.23;101583.66;5055654;28;20067;-66
2022/07/21 01:30:30;;;;;;;2.00;1.90;;;23.00;99.90;;;23.31;75.24;101581.16;5055424;28;20037;-66
2022/07/21 01:32:59;;;;;;;2.13;2.03;;;22.90;99.90;;;23.03;76.16;101561.75;5054968;28;20098;-67
2022/07/21 01:35:27;;;;;;;2.17;2.08;;;22.90;99.90;;;23.17;75.95;101572.81;5055008;28;20045;-66
2022/07/21 01:37:56;;;;;;;2.22;2.13;;;22.80;99.90;;;23.27;75.74;101572.31;5055195;28;20044;-67
2022/07/21 01:43:12;;;;;;;2.05;1.95;;;23.00;99.90;;;23.53;74.76;101568.44;5055522;28;20045;-67
2022/07/21 01:45:41;;;;;;;2.00;1.90;;;23.10;99.90;;;23.62;74.31;101572.53;5055383;28;20052;-66
2022/07/21 01:48:10;;;;;;;1.92;1.83;;;23.30;99.90;;;23.63;74.08;101575.19;5054788;28;20076;-66
2022/07/21 01:50:38;;;;;;;2.20;2.10;;;23.30;99.90;;;23.61;74.29;101577.06;5054978;28;20055;-66
2022/07/21 01:53:07;;;;;;;2.20;2.10;;;23.30;99.90;;;23.51;74.83;101574.84;5054608;28;20044;-67
2022/07/21 01:55:37;;;;;;;1.83;1.77;;;23.20;99.90;;;23.45;75.01;101570.63;5054485;28;20734;-66
2022/07/21 01:58:05;;;;;;;2.30;2.20;;;23.10;99.90;;;23.32;75.21;101550.53;5054583;28;20051;-67
2022/07/21 02:00:34;;;;;;;2.00;1.90;;;23.10;99.90;;;23.40;75.44;101567.28;5054700;28;20053;-67
2022/07/21 02:03:03;;;;;;;2.20;2.10;;;23.10;99.90;;;23.27;76.03;101560.63;5053682;28;20068;-66
2022/07/21 02:05:32;;;;;;;2.47;2.38;;;23.00;99.90;;;23.23;76.40;101554.50;5054428;28;20553;-66
2022/07/21 02:08:00;;;;;;;6.55;2.67;;;22.90;99.90;;;23.29;76.15;101542.53;5054414;28;20128;-67
2022/07/21 02:10:28;;;;;;;2.22;2.13;;;22.90;99.90;;;23.39;75.93;101535.78;5054406;28;20055;-66
2022/07/21 02:12:58;;;;;;;1.95;1.85;;;23.00;99.90;;;23.45;75.94;101538.22;5054323;28;20047;-67
2022/07/21 02:15:26;;;;;;;2.30;2.20;;;23.00;99.90;;;23.41;75.91;101538.41;5054353;28;20106;-66
2022/07/21 02:17:54;;;;;;;2.50;2.40;;;23.00;99.90;;;23.36;76.09;101543.16;5054639;28;20128;-67
2022/07/21 02:20:23;;;;;;;4.88;2.72;;;23.00;99.90;;;23.30;76.31;101544.28;5054174;28;20090;-66
2022/07/21 02:22:52;;;;;;;2.00;1.90;;;23.00;99.90;;;23.20;76.57;101534.84;5054322;28;20376;-66
2022/07/21 02:25:21;;;;;;;2.28;2.17;;;22.90;99.90;;;23.14;76.72;101546.81;5054043;28;20045;-66
2022/07/21 02:27:49;;;;;;;1.95;1.85;;;22.80;99.90;;;23.16;77.24;101544.94;5053973;28;20043;-67
2022/07/21 02:30:19;;;;;;;2.30;2.20;;;22.80;99.90;;;22.89;78.03;101531.78;5053984;28;20472;-66
2022/07/21 02:32:48;;;;;;;2.90;2.80;;;22.60;99.90;;;22.84;78.60;101539.22;5054145;28;20048;-67
2022/07/21 02:35:16;;;;;;;2.53;2.42;;;22.50;99.90;;;22.85;79.17;101544.53;5053811;28;20499;-66
2022/07/21 02:37:44;;;;;;;3.60;3.40;;;22.40;99.90;;;22.85;79.22;101535.56;5054214;28;20479;-66
2022/07/21 02:40:13;;;;;;;2.83;2.72;;;22.50;99.90;;;22.83;79.17;101540.16;5053730;28;20047;-66
2022/07/21 02:42:41;;;;;;;3.20;3.05;;;22.50;99.90;;;22.67;79.17;101512.09;5053625;28;20127;-66
2022/07/21 02:45:11;;;;;;;2.58;2.47;;;22.40;99.90;;;22.70;79.33;101518.25;5054286;28;20045;-66
2022/07/21 02:48:00;;;;;;;2.55;2.45;;;22.40;99.90;;;22.79;79.40;101527.75;5053725;28;20068;-66
2022/07/21 02:50:31;;;;;;;2.17;2.08;;;22.40;99.90;;;22.83;79.61;101529.34;5054177;28;20052;-66
2022/07/21 02:53:05;;;;;;;2.33;2.22;;;22.40;99.90;;;22.87;79.26;101518.38;5053513;28;20041;-66
2022/07/21 02:55:34;;;;;;;2.50;2.40;;;22.50;99.90;;;22.95;79.05;101528.81;5053484;28;20045;-66
2022/07/21 02:58:10;;;;;;;3.30;3.00;;;22.60;99.90;;;22.72;78.80;101485.81;5053561;28;20402;-66
2022/07/21 03:00:50;;;;;;;3.03;2.92;;;22.60;99.90;;;23.02;78.95;101527.59;5053900;28;20045;-66
2022/07/21 03:03:21;;;;;;;2.25;2.15;;;22.60;99.90;;;23.02;78.87;101524.88;5053312;28;20391;-66
2022/07/21 03:05:50;;;;;;;2.38;2.28;;;22.60;99.90;;;22.95;79.07;101518.03;5053892;28;20073;-66
2022/07/21 03:08:19;;;;;;;2.30;2.20;;;22.60;99.90;;;22.92;79.28;101510.03;5053185;28;20125;-67
2022/07/21 03:10:48;;;;;;;2.72;2.58;;;22.60;99.90;;;22.96;79.34;101527.84;5053768;28;20045;-66
2022/07/21 03:13:16;;;;;;;2.63;2.53;;;22.60;99.90;;;22.98;79.48;101521.47;5052813;28;20090;-66
2022/07/21 03:15:45;;;;;;;3.55;3.35;;;22.60;99.90;;;23.02;79.30;101522.19;5053061;28;20049;-66
2022/07/21 03:18:13;;;;;;;2.65;2.55;;;22.60;99.90;;;22.77;79.53;101492.75;5053007;28;20119;-66
2022/07/21 03:20:44;;;;;;;2.30;2.20;;;22.60;99.90;;;22.95;79.81;101531.53;5053167;28;20044;-67
2022/07/21 03:23:13;;;;;;;2.42;2.33;;;22.60;99.90;;;22.86;79.46;101513.91;5053764;28;20118;-66
2022/07/21 03:25:41;;;;;;;2.58;2.47;;;22.60;99.90;;;23.02;79.58;101525.78;5053028;28;20045;-66
2022/07/21 03:28:10;;;;;;;2.38;2.28;;;22.60;99.90;;;22.98;79.55;101509.78;5052995;28;20499;-66
2022/07/21 03:30:39;;;;;;;3.13;2.95;;;22.70;99.90;;;23.08;79.55;101527.31;5052078;28;20067;-66
2022/07/21 03:33:07;;;;;;;3.88;3.67;;;22.70;99.90;;;22.96;79.27;101515.25;5053098;28;20044;-66
2022/07/21 03:35:36;;;;;;;2.42;2.33;;;22.70;99.90;;;23.08;79.27;101528.19;5051833;28;20556;-67
2022/07/21 03:38:06;;;;;;;2.15;2.05;;;22.70;99.90;;;23.02;79.53;101530.28;5052745;28;20570;-66
2022/07/21 03:40:37;;;;;;;25.92;6.78;;;22.70;99.90;;;23.03;79.82;101535.63;5052923;28;20124;-67
2022/07/21 03:43:07;;;;;;;2.08;1.98;;;22.60;99.90;;;23.02;79.79;101530.28;5053123;28;20455;-66
2022/07/21 03:45:37;;;;;;;2.15;2.05;;;22.60;99.90;;;23.03;79.83;101523.97;5053119;28;20095;-67
2022/07/21 03:48:07;;;;;;;2.35;2.25;;;22.60;99.90;;;23.03;79.91;101527.53;5052731;28;20045;-66
2022/07/21 03:50:39;;;;;;;2.60;2.50;;;22.60;99.90;;;22.90;79.44;101512.81;5052758;28;20452;-66
2022/07/21 03:53:09;;;;;;;2.65;2.55;;;22.60;99.90;;;22.83;79.73;101505.97;5053031;28;20079;-66
2022/07/21 03:55:37;;;;;;;2.10;2.00;;;22.60;99.90;;;22.97;79.83;101524.22;5052503;28;20045;-66
2022/07/21 03:58:07;;;;;;;2.20;2.10;;;22.60;99.90;;;22.75;80.03;101489.22;5052846;28;20558;-66
2022/07/21 04:00:38;;;;;;;2.50;2.40;;;22.60;99.90;;;22.83;79.92;101510.47;5052616;28;20049;-66
2022/07/21 04:03:07;;;;;;;2.30;2.20;;;22.50;99.90;;;22.87;80.07;101529.16;5052612;28;20124;-66
2022/07/21 04:05:37;;;;;;;5.38;4.22;;;22.40;99.90;;;22.85;80.30;101530.16;5052794;28;20061;-77
2022/07/21 04:08:08;;;;;;;2.58;2.47;;;22.50;99.90;;;22.84;80.13;101533.81;5052817;28;20043;-65
2022/07/21 04:10:39;;;;;;;3.13;2.92;;;22.50;99.90;;;22.81;80.41;101539.34;5052605;28;20517;-66
2022/07/21 04:13:11;;;;;;;2.58;2.47;;;22.40;99.90;;;22.80;80.22;101527.66;5052572;28;20075;-65
2022/07/21 04:15:39;;;;;;;3.05;2.92;;;22.40;99.90;;;22.57;80.50;101508.06;5052572;28;20041;-63
2022/07/21 04:18:09;;;;;;;2.55;2.45;;;22.40;99.90;;;22.66;80.73;101538.22;5052628;28;20041;-68
2022/07/21 04:20:37;;;;;;;3.05;2.88;;;22.30;99.90;;;22.72;80.81;101539.75;5052449;28;20506;-66
2022/07/21 04:23:07;;;;;;;2.63;2.53;;;22.30;99.90;;;22.82;80.73;101544.66;5052365;28;20124;-66
2022/07/21 04:25:38;;;;;;;2.75;2.65;;;22.40;99.90;;;22.66;80.99;101526.53;5054337;28;20041;-66
2022/07/21 04:28:07;;;;;;;2.70;2.60;;;22.40;99.90;;;22.36;83.67;101542.16;5056596;28;20060;-66
2022/07/21 04:30:35;;;;;;;2.17;2.08;;;22.00;99.90;;;22.20;84.25;101519.50;5056482;28;20044;-66
2022/07/21 04:33:04;;;;;;;4.40;3.53;;;21.90;99.90;;;22.24;84.99;101542.72;5056431;28;20045;-66
2022/07/21 04:35:32;;;;;;;2.38;2.28;;;21.90;99.90;;;22.24;84.70;101548.09;5056357;28;20037;-66
2022/07/21 04:38:00;;;;;;;19.08;3.85;;;21.80;99.90;;;22.20;85.52;101555.41;5055990;28;20129;-66
2022/07/21 04:40:30;;;;;;;3.00;2.90;;;21.70;99.90;;;22.14;85.76;101552.09;5055948;28;20459;-66
2022/07/21 04:42:58;;;;;;;2.77;2.67;;;21.70;99.90;;;21.98;87.02;101554.53;5056292;28;20128;-66
2022/07/21 04:45:27;;;;;;;2.25;2.15;;;21.60;99.90;;;22.04;86.96;101556.09;5055898;28;20072;-66
2022/07/21 04:47:56;;;;;;;2.50;2.40;;;21.60;99.90;;;21.92;87.90;101559.28;5054827;28;20505;-66
2022/07/21 04:50:27;;;;;;;2.40;2.30;;;21.60;99.90;;;22.06;87.70;101557.81;5056363;28;20430;-66
2022/07/21 04:52:58;;;;;;;4.28;3.97;;;21.60;99.90;;;22.06;86.88;101560.50;5055776;28;20453;-66
2022/07/21 04:55:27;;;;;;;2.75;2.65;;;21.70;99.90;;;22.07;88.06;101559.56;5055729;28;20486;-65
2022/07/21 04:57:58;;;;;;;2.88;2.78;;;21.60;99.90;;;22.18;87.65;101553.75;5056050;28;20049;-65
2022/07/21 05:00:28;;;;;;;3.47;3.28;;;21.80;99.90;;;22.09;87.63;101554.09;5055504;28;20037;-66
2022/07/21 05:02:56;;;;;;;2.55;2.45;;;21.70;99.90;;;22.08;87.01;101553.25;5056074;28;20045;-66
2022/07/21 05:05:25;;;;;;;4.53;4.30;;;21.70;99.90;;;21.89;88.18;101552.19;5055659;28;20041;-66
2022/07/21 05:07:54;;;;;;;2.38;2.28;;;21.50;99.90;;;21.89;88.59;101551.34;5054572;28;20076;-66
2022/07/21 05:10:23;;;;;;;2.92;2.83;;;21.50;99.90;;;21.78;88.77;101531.97;5054430;28;20045;-66
2022/07/21 05:12:51;;;;;;;2.58;2.47;;;21.50;99.90;;;21.92;88.70;101548.50;5055727;28;20053;-66
2022/07/21 05:15:21;;;;;;;2.45;2.35;;;21.50;99.90;;;21.97;88.82;101550.06;5055294;28;20045;-65
2022/07/21 05:17:50;;;;;;;2.20;2.10;;;21.60;99.90;;;21.92;89.40;101557.47;5054149;28;20432;-66
2022/07/21 05:20:18;;;;;;;4.22;3.97;;;21.50;99.90;;;21.87;89.13;101546.03;5055057;28;20064;-66
2022/07/21 05:22:46;;;;;;;7.35;4.88;;;21.50;99.90;;;21.58;90.33;101545.38;5053850;28;20045;-66
2022/07/21 05:25:15;;;;;;;2.33;2.22;;;21.30;99.90;;;21.40;91.07;101512.84;5054059;28;20406;-65
2022/07/21 05:27:43;;;;;;;2.90;2.80;;;21.20;99.90;;;21.53;90.41;101542.84;5055208;28;20537;-66
2022/07/21 05:30:13;;;;;;;2.70;2.60;;;21.10;99.90;;;21.40;90.44;101487.72;5055012;28;20071;-65
2022/07/21 05:32:42;;;;;;;2.70;2.60;;;21.30;99.90;;;21.78;90.05;101549.03;5055586;28;20048;-65
2022/07/21 05:35:16;;;;;;;2.92;2.83;;;21.40;99.90;;;21.73;90.41;101553.75;5055621;28;20049;-65
2022/07/21 05:37:45;;;;;;;2.63;2.53;;;21.40;99.90;;;21.66;90.43;101554.03;5054641;28;20124;-65
2022/07/21 05:40:15;;;;;;;2.70;2.60;;;21.30;99.90;;;21.43;91.50;101554.91;5054787;28;20240;-65
2022/07/21 05:42:43;;;;;;;2.78;2.67;;;21.10;99.90;;;21.37;91.39;101529.09;5054800;28;20534;-65
2022/07/21 05:45:13;;;;;;;2.75;2.65;;;21.20;99.90;;;21.64;91.50;101567.53;5054652;28;20045;-65
2022/07/21 05:47:43;;;;;;;4.65;4.32;;;21.30;99.90;;;21.52;91.06;101566.19;5054577;28;20139;-65
2022/07/21 05:50:13;;;;;;;2.28;2.17;;;21.20;99.90;;;21.43;91.34;101557.59;5055009;28;20095;-65
2022/07/21 05:52:41;;;;;;;2.58;2.47;;;21.10;99.90;;;21.45;91.75;101563.81;5055367;28;20132;-65
2022/07/21 05:55:11;;;;;;;3.63;3.42;;;21.00;99.90;;;21.45;91.79;101558.41;5054548;28;20493;-66
2022/07/21 05:57:40;;;;;;;12.75;6.70;;;21.10;99.90;;;21.13;91.62;101527.34;5054249;28;20487;-66
2022/07/21 06:00:15;;;;;;;3.15;3.05;;;21.00;99.90;;;21.11;91.57;101555.25;5054825;28;20045;-65
2022/07/21 06:02:45;;;;;;;2.65;2.55;;;20.80;99.90;;;21.19;92.01;101553.16;5054406;28;20499;-65
2022/07/21 06:05:14;;;;;;;2.50;2.40;;;20.90;99.90;;;21.30;91.85;101567.97;5054670;28;20102;-65
2022/07/21 06:07:43;;;;;;;2.55;2.45;;;21.00;99.90;;;21.42;91.88;101556.75;5054236;28;20475;-65
2022/07/21 06:10:13;;;;;;;2.40;2.30;;;21.00;99.90;;;21.40;91.81;101571.19;5054247;28;20045;-65
2022/07/21 06:12:45;;;;;;;2.38;2.28;;;21.10;99.90;;;21.41;91.08;101571.13;5054469;28;20045;-65
2022/07/21 06:15:14;;;;;;;2.57;2.47;;;21.10;99.90;;;21.43;92.07;101573.75;5054345;28;20554;-66
2022/07/21 06:17:46;;;;;;;2.65;2.55;;;21.10;99.90;;;21.59;91.51;101580.31;5054194;28;20052;-65
2022/07/21 06:20:15;;;;;;;3.17;3.08;;;21.20;99.90;;;21.55;91.27;101574.19;5054432;28;20473;-65
2022/07/21 06:22:44;;;;;;;2.83;2.72;;;21.20;99.90;;;21.59;91.31;101558.78;5054216;28;20526;-64
2022/07/21 06:25:12;;;;;;;4.20;3.90;;;21.30;99.90;;;21.61;90.92;101573.06;5054513;28;20045;-65
2022/07/21 06:27:41;;;;;;;4.80;4.35;;;21.30;99.90;;;21.63;90.15;101581.06;5054206;28;20037;-65
2022/07/21 06:30:14;;;;;;;2.60;2.50;;;21.30;99.90;;;21.48;89.99;101551.13;5053811;28;20051;-65
2022/07/21 06:32:42;;;;;;;2.22;2.13;;;21.30;99.90;;;21.59;89.71;101580.31;5054086;28;20106;-65
2022/07/21 06:35:12;;;;;;;2.85;2.75;;;21.30;99.90;;;21.52;89.90;101578.81;5053945;28;20549;-65
2022/07/21 06:37:45;;;;;;;2.75;2.65;;;21.30;99.90;;;21.68;89.80;101579.94;5054236;28;20095;-65
2022/07/21 06:40:15;;;;;;;2.60;2.50;;;21.30;99.90;;;21.55;91.16;101584.94;5053798;28;20075;-65
2022/07/21 06:42:43;;;;;;;2.75;2.65;;;21.30;99.90;;;21.71;90.61;101573.56;5053817;28;20406;-65
2022/07/21 06:45:32;;;;;;;3.65;3.45;;;21.30;99.90;;;21.84;89.71;101577.56;5053953;28;20136;-65
2022/07/21 06:48:04;;;;;;;2.55;2.45;;;21.50;99.90;;;20.94;90.02;101487.69;5053027;28;20032;-65
2022/07/21 06:50:35;;;;;;;2.45;2.35;;;21.40;99.90;;;21.62;90.29;101555.97;5053654;28;20060;-65
2022/07/21 06:53:05;;;;;;;2.92;2.83;;;21.40;99.90;;;21.69;90.72;101580.84;5053483;28;20047;-65
2022/07/21 06:55:34;;;;;;;2.47;2.37;;;21.40;99.90;;;21.52;90.77;101581.50;5053420;28;20041;-65
2022/07/21 06:58:13;;;;;;;2.45;2.35;;;21.20;99.90;;;21.35;91.26;101575.88;5054053;28;20045;-64
2022/07/21 07:00:41;;;;;;;2.45;2.35;;;21.10;99.90;;;21.45;90.79;101588.03;5053526;28;20483;-65
2022/07/21 07:03:10;;;;;;;4.07;3.88;;;21.10;99.90;;;21.35;90.74;101587.50;5053444;28;20045;-65
2022/07/21 07:05:43;;;;;;;2.33;2.22;;;21.00;99.90;;;21.23;92.38;101605.94;5053443;28;20502;-65
2022/07/21 07:08:12;;;;;;;2.97;2.88;;;20.80;99.90;;;21.20;92.75;101601.53;5053474;28;20049;-65
2022/07/21 07:10:40;;;;;;;2.40;2.30;;;20.80;99.90;;;21.26;93.38;101609.38;5053353;28;20045;-65
2022/07/21 07:13:10;;;;;;;3.50;3.30;;;20.80;99.90;;;21.25;93.25;101612.13;5053051;28;20045;-65
2022/07/21 07:15:58;;;;;;;3.30;3.10;;;20.90;99.90;;;21.08;93.22;101596.59;5051637;28;20132;-66
2022/07/21 07:18:27;;;;;;;2.20;2.10;;;20.80;99.90;;;21.09;93.49;101597.47;5053251;28;20443;-65
2022/07/21 07:20:56;;;;;;;2.17;2.08;;;20.80;99.90;;;21.23;93.66;101625.66;5053157;28;20052;-65
2022/07/21 07:23:25;;;;;;;2.73;2.63;;;20.80;99.90;;;21.34;93.36;101622.56;5053303;28;20319;-68
2022/07/21 07:25:53;;;;;;;2.90;2.80;;;20.90;99.90;;;21.17;92.91;101606.16;5053108;28;20048;-72
2022/07/21 07:28:21;;;;;;;3.45;3.25;;;20.90;99.90;;;21.34;93.14;101627.94;5053076;28;20037;-72
2022/07/21 07:30:50;;;;;;;3.25;3.15;;;21.00;99.90;;;21.34;92.45;101622.56;5053078;28;20133;-71
2022/07/21 07:33:21;;;;;;;3.38;3.28;;;21.00;99.90;;;21.14;92.56;101580.22;5052807;28;20043;-71
2022/07/21 07:35:50;;;;;;;2.45;2.35;;;21.00;99.90;;;21.25;92.34;101585.22;5052792;28;20051;-71
2022/07/21 07:38:19;;;;;;;2.58;2.47;;;21.10;99.90;;;21.43;92.12;101627.59;5053004;28;20074;-71
2022/07/21 07:40:48;;;;;;;3.08;2.97;;;21.10;99.90;;;21.40;92.29;101622.34;5052658;28;20041;-75
2022/07/21 07:43:16;;;;;;;2.88;2.78;;;21.10;99.90;;;21.35;91.37;101622.50;5052606;28;20139;-69
2022/07/21 07:45:45;;;;;;;2.75;2.60;;;21.10;99.90;;;21.43;91.25;101627.59;5052601;28;20201;-71
2022/07/21 07:48:13;;;;;;;3.08;2.97;;;21.10;99.90;;;21.41;91.08;101624.09;5052937;28;20033;-70
2022/07/21 07:50:42;;;;;;;3.38;3.10;;;21.10;99.90;;;21.42;90.95;101629.44;5053140;28;20041;-75
2022/07/21 07:53:10;;;;;;;2.83;2.72;;;21.10;99.90;;;21.42;91.16;101633.94;5052518;28;20088;-72
2022/07/21 07:55:40;;;;;;;2.80;2.70;;;21.10;99.90;;;21.18;90.60;101578.28;5052326;28;20037;-74
2022/07/21 07:58:08;;;;;;;4.43;4.17;;;21.10;99.90;;;21.48;90.54;101623.81;5053036;28;20076;-73
2022/07/21 08:00:37;;;;;;;3.25;3.05;;;21.20;99.90;;;21.42;90.84;101623.16;5055779;28;20314;-69
2022/07/21 08:03:25;;;;;;;2.67;2.58;;;21.20;99.90;;;21.39;91.40;101625.94;5056616;28;20479;-67
2022/07/21 08:05:55;;;;;;;2.70;2.60;;;21.10;99.90;;;21.44;91.25;101626.69;5056647;28;20086;-67
2022/07/21 08:08:24;;;;;;;9.27;4.47;;;21.10;99.90;;;21.30;90.79;101616.41;5056383;28;20099;-69
2022/07/21 08:10:54;;;;;;;2.63;2.53;;;21.10;99.90;;;21.37;91.72;101635.88;5056632;28;20064;-70
2022/07/21 08:13:22;;;;;;;3.00;2.90;;;21.00;99.90;;;21.29;91.26;101636.19;5056875;28;20070;-71
2022/07/21 08:15:51;;;;;;;3.83;3.63;;;21.00;99.90;;;20.94;91.14;101595.31;5056508;28;20080;-70
2022/07/21 08:18:20;;;;;;;2.75;2.65;;;20.90;99.90;;;21.14;91.60;101642.13;5056345;28;20052;-71
2022/07/21 08:20:50;;;;;;;4.47;3.40;;;20.80;99.90;;;20.91;92.02;101622.28;5056329;28;20045;-71
2022/07/21 08:23:18;;;;;;;2.65;2.55;;;20.70;99.90;;;21.02;92.08;101636.31;5056482;28;20155;-69
2022/07/21 08:25:46;;;;;;;3.60;3.40;;;20.70;99.90;;;21.04;92.17;101637.97;5056412;28;20550;-69
2022/07/21 08:28:16;;;;;;;3.03;2.92;;;20.80;99.90;;;21.03;91.38;101640.75;5056301;28;20045;-69
2022/07/21 08:30:45;;;;;;;3.10;3.00;;;20.70;99.90;;;21.05;91.50;101641.56;5056235;28;20120;-70
2022/07/21 08:33:13;;;;;;;2.80;2.70;;;20.80;99.90;;;21.14;91.11;101638.53;5056712;28;20291;-72
2022/07/21 08:35:41;;;;;;;2.65;2.55;;;20.80;99.90;;;21.14;90.65;101642.13;5056232;28;20041;-69
2022/07/21 08:38:12;;;;;;;3.35;3.15;;;20.80;99.90;;;21.17;90.09;101639.34;5056463;28;20040;-70
2022/07/21 08:40:44;;;;;;;3.00;2.90;;;20.90;99.90;;;21.15;90.25;101633.13;5055133;28;20431;-74
2022/07/21 08:43:14;;;;;;;2.70;2.60;;;21.00;99.90;;;21.27;89.60;101646.13;5054778;28;20041;-74
2022/07/21 08:45:44;;;;;;;2.67;2.58;;;21.00;99.90;;;21.38;89.00;101659.19;5056069;28;20037;-75
2022/07/21 08:48:17;;;;;;;3.80;3.60;;;21.10;99.90;;;21.51;88.74;101657.81;5055964;28;20095;-74
2022/07/21 08:50:46;;;;;;;2.80;2.70;;;21.20;99.90;;;21.56;88.05;101654.00;5056255;28;20407;-73
2022/07/21 08:53:15;;;;;;;2.60;2.50;;;21.30;99.90;;;21.50;87.90;101637.22;5055879;28;20045;-73
2022/07/21 08:55:43;;;;;;;2.58;2.47;;;21.30;99.90;;;21.63;87.81;101643.00;5054535;28;20053;-73
2022/07/21 08:58:14;;;;;;;2.60;2.50;;;21.50;99.90;;;21.81;87.54;101656.72;5056028;28;20445;-75
2022/07/21 09:00:46;;;;;;;2.95;2.85;;;21.50;99.90;;;21.65;87.68;101627.69;5055799;28;20068;-75
2022/07/21 09:03:18;;;;;;;2.63;2.53;;;21.60;99.90;;;21.97;87.77;101652.47;5055701;28;20442;-74
2022/07/21 09:06:07;;;;;;;3.53;3.33;;;21.60;99.90;;;21.79;86.81;101642.41;5055615;28;20064;-76
2022/07/21 09:08:38;;;;;;;13.57;3.17;;;21.70;99.90;;;21.79;86.36;101630.72;5055832;28;20048;-74
2022/07/21 09:11:17;;;;;;;2.42;2.33;;;21.70;99.90;;;21.98;86.87;101661.44;5055382;28;20081;-73
2022/07/21 09:13:51;;;;;;;3.85;3.65;;;21.70;99.90;;;21.60;85.85;101668.28;5055729;28;20079;-74
2022/07/21 09:16:39;;;;;;;2.63;2.53;;;21.40;99.90;;;21.56;86.16;101666.63;5055323;28;20128;-74
2022/07/21 09:19:18;;;;;;;2.75;2.65;;;21.30;99.90;;;21.53;86.24;101667.59;5055543;28;20068;-74
2022/07/21 09:21:48;;;;;;;2.70;2.60;;;21.30;99.90;;;21.26;87.65;101651.56;5055410;28;20473;-75
2022/07/21 09:24:21;;;;;;;2.93;2.73;;;21.20;99.90;;;21.34;88.22;101671.00;5054309;28;20068;-75
2022/07/21 09:27:09;;;;;;;2.90;2.80;;;21.10;99.90;;;21.22;88.66;101676.81;5055313;28;20283;-75
2022/07/21 09:29:42;;;;;;;2.80;2.70;;;21.00;99.90;;;21.13;89.41;101671.78;5055239;28;20102;-75
2022/07/21 09:32:22;;;;;;;2.63;2.53;;;20.90;99.90;;;20.95;90.17;101646.34;5055084;28;20055;-75
2022/07/21 09:34:54;;;;;;;3.40;3.30;;;20.90;99.90;;;21.12;90.52;101673.59;5055089;28;20499;-77
2022/07/21 09:37:24;;;;;;;2.97;2.88;;;20.90;99.90;;;21.16;91.45;101677.91;5055344;28;20430;-74
2022/07/21 09:39:54;;;;;;;2.70;2.60;;;20.90;99.90;;;21.15;91.30;101680.69;5054995;28;20127;-75
2022/07/21 09:42:26;;;;;;;2.83;2.72;;;20.90;99.90;;;20.90;91.97;101656.41;5055135;28;20088;-76
2022/07/21 09:44:57;;;;;;;4.43;4.03;;;20.80;99.90;;;20.93;92.43;101680.50;5055139;28;20044;-75
2022/07/21 09:47:30;;;;;;;2.67;2.58;;;20.70;99.90;;;20.87;92.92;101687.88;5055203;28;20041;-75
2022/07/21 09:50:01;;;;;;;2.58;2.47;;;20.60;99.90;;;20.88;93.78;101674.41;5055253;28;20065;-75
2022/07/21 09:52:49;;;;;;;3.70;3.50;;;20.70;99.90;;;20.83;93.92;101691.63;5070377;28;20094;-70
2022/07/21 09:55:18;;;;;;;2.92;2.83;;;20.60;99.90;;;20.79;94.61;101687.28;5054725;28;20083;-70
2022/07/21 09:57:47;;;;;;;4.80;2.97;;;20.50;99.90;;;20.64;94.86;101689.53;5054386;28;20053;-70
2022/07/21 10:00:19;;;;;;;2.92;2.83;;;20.50;99.90;;;20.73;95.72;101695.56;5054886;28;20132;-70
2022/07/21 10:02:50;;;;;;;3.00;2.90;;;20.40;99.90;;;20.65;95.85;101699.34;5054741;28;20461;-71
2022/07/21 10:05:21;;;;;;;3.42;3.22;;;20.40;99.90;;;20.55;96.36;101705.97;5054511;28;20044;-71
2022/07/21 10:08:04;;;;;;;2.55;2.45;;;20.30;99.90;;;20.51;96.83;101714.19;5054697;28;20158;-70
2022/07/21 10:10:34;;;;;;;6.15;5.55;;;20.30;99.90;;;20.80;97.27;101710.56;5054660;28;20398;-70
2022/07/21 10:13:23;;;;;;;2.78;2.67;;;20.50;99.90;;;20.89;96.56;101710.22;5054385;28;20128;-70
2022/07/21 10:15:53;;;;;;;3.05;2.95;;;20.60;99.90;;;20.84;96.37;101707.72;5054220;28;20037;-69
2022/07/21 10:18:27;;;;;;;3.42;3.22;;;20.60;99.90;;;20.77;96.27;101710.66;5054554;28;20056;-69
2022/07/21 10:21:03;;;;;;;3.72;3.53;;;20.50;99.90;;;20.61;96.50;101708.44;5054458;28;20052;-71
2022/07/21 10:23:40;;;;;;;3.10;3.00;;;20.40;99.90;;;20.63;96.64;101709.28;5053583;28;20071;-71
2022/07/21 10:26:11;;;;;;;9.38;5.95;;;20.40;99.90;;;20.65;96.87;101712.81;5054594;28;20386;-72
2022/07/21 10:28:40;;;;;;;9.80;5.55;;;20.30;99.90;;;20.42;97.14;101693.84;5054572;28;20106;-75